Saint-Moise, Canada
Current Conditions -  °F | °C
As of 7:00 AM on Sunday 23 Nov 2014 (Local Time) from CYYY Reporting Station
Light Snow Light Snow  
Wind Chill: 25°   Ceiling: 2500
Heat Index: 36°   Visibility: 30mi
Dew Point: 30°   Wind: 21mph
Humidity: 81%   Direction: 260°W
Pressure: 29.84"   Gusts: 29mph
Location:  48.53°N, 67.85°W
Report Text: CYYY 231200Z 26018G25KT 30SM -SN OVC025 02/M01 A2984 RMK SC8 SLP108
Loading
Personal Weather Stations






























Interactive Weather Map New forecast layout! Learn more

10-Day Weather Forecast

Advertisements
Track Severe Weather on mobile